Aérodrome :
LOGIN :

S'inscrire | Disclaimer

   EN    FR    IT 

 










Légende :    VFR   VFR Marginal   IFR   IFR Intensif   IFR Très Intensif
Visi : 
Plafond : 
>= 8 km
>= 3000ft
5 à 8 km
1000 à 3000 ft
1500m à 5 km
500 à 1000 ft
800 à 1500m
200 à 500 ft
< 800m
< 200 ft
Symboles :   Orages  Brouillard  Fortes neiges  Fortes précipitations  Vent > 20 kt
SIGMETs :   Divers  Orages  Givrage  Turbulence  Onde Orograph.  Cendres Volcan.







- Altitude de l'aérodrome : 6 ft
- Code IATA : PSA


LIRP - Galileo Galilei Pisa

DERNIER METAR :
  • 221545Z 11002KT 9999 SCT030 SCT040 14/10 Q1019 NOSIG

METARs EXPIRÉS :
  • 221515Z 12004KT 9999 SCT030 SCT045 14/10 Q1019 NOSIG
  • 221445Z 12005KT 9999 SCT030 SCT050 14/10 Q1019 NOSIG
  • 221415Z 13006KT 9999 SCT030 SCT050 14/11 Q1019 NOSIG
  • 221345Z 15006KT 9999 SCT030 SCT050 14/10 Q1019 NOSIG
  • 221315Z 16004KT 9999 SCT030 SCT050 14/09 Q1019 NOSIG

TAF TAF LIRP
Valide du 22 à 12h jusqu'au 23 à 12h UTC


221100Z 2212/2312 10008KT 9999 SCT030 SCT050
TEMPO 2220/2308 5000 BR NSC
PROB40
TEMPO 2300/2307 1500 MIFG SCT005
Pas de NOTAMs connus pour ce terrain.



MET'MAP, la Météo Aéronautique d'un coup d'oeil ! - Copyright ORBIFLY Décembre 2007 - Disclaimer

ORBIFLY MET'MAP TEAM :

Programmation & Développement : Alexandra Zaïnal
Conception & Développement : Baudouin d'Aumeries
Co-Programmation & Développement : Marc-Olivier Méhu
Soutien technique & logistique : Manuel Goepfert

Contact : metmap@orbifly.com




SOURCES & CREDITS :

   NOAA